createdAt,value
2023-03-28T00:02:05.663Z,97300.78
2023-03-28T00:04:32.079Z,97292.91
2023-03-28T00:06:58.852Z,97294.16
2023-03-28T00:09:25.817Z,97303.50
2023-03-28T00:11:52.269Z,97306.06
2023-03-28T00:14:18.707Z,97306.34
2023-03-28T00:16:48.159Z,97313.78
2023-03-28T00:19:18.226Z,97316.81
2023-03-28T00:21:47.375Z,97315.06
2023-03-28T00:24:15.901Z,97315.69
2023-03-28T00:26:43.988Z,97313.59
2023-03-28T00:29:15.802Z,97320.41
2023-03-28T00:31:42.559Z,97330.84
2023-03-28T00:34:09.198Z,97331.38
2023-03-28T00:36:38.971Z,97339.03
2023-03-28T00:39:06.705Z,97338.09
2023-03-28T00:41:41.528Z,97346.19
2023-03-28T00:44:45.369Z,97348.44
2023-03-28T00:47:27.747Z,97343.66
2023-03-28T00:50:03.512Z,97345.75
2023-03-28T00:52:35.566Z,97345.41
2023-03-28T00:55:04.683Z,97348.00
2023-03-28T00:57:31.236Z,97342.81
2023-03-28T00:59:58.081Z,97347.06
2023-03-28T01:02:24.741Z,97348.34
2023-03-28T01:04:59.405Z,97347.03
2023-03-28T01:07:33.276Z,97342.34
2023-03-28T01:10:00.476Z,97350.34
2023-03-28T01:12:27.093Z,97343.50
2023-03-28T01:14:54.678Z,97347.56
2023-03-28T01:17:21.657Z,97351.81
2023-03-28T01:20:04.100Z,97351.91
2023-03-28T01:23:01.482Z,97357.81
2023-03-28T01:25:57.324Z,97348.75
2023-03-28T01:28:50.285Z,97358.06
2023-03-28T01:31:44.887Z,97354.78
2023-03-28T01:34:50.947Z,97363.44
2023-03-28T01:37:21.546Z,97361.38
2023-03-28T01:40:22.268Z,97358.69
2023-03-28T01:42:58.800Z,97366.84
2023-03-28T01:45:34.356Z,97368.91
2023-03-28T01:48:23.500Z,97367.56
2023-03-28T01:50:57.553Z,97370.16
2023-03-28T01:53:59.171Z,97371.09
2023-03-28T01:56:39.916Z,97363.38
2023-03-28T01:59:13.963Z,97369.97
2023-03-28T02:02:03.974Z,97368.03
2023-03-28T02:04:33.440Z,97367.06
2023-03-28T02:07:01.210Z,97371.13
2023-03-28T02:09:30.022Z,97365.38
2023-03-28T02:12:04.558Z,97369.97
2023-03-28T02:14:37.315Z,97370.25
2023-03-28T02:17:09.383Z,97369.44
2023-03-28T02:19:38.570Z,97366.50
2023-03-28T02:22:16.322Z,97367.66
2023-03-28T02:24:42.816Z,97368.75
2023-03-28T02:27:09.377Z,97377.81
2023-03-28T02:29:39.205Z,97370.22
2023-03-28T02:32:06.056Z,97379.56
2023-03-28T02:34:32.687Z,97376.84
2023-03-28T02:37:16.267Z,97387.22
2023-03-28T02:39:57.931Z,97384.66
2023-03-28T02:42:54.760Z,97388.16
2023-03-28T02:45:23.857Z,97382.16
2023-03-28T02:48:24.350Z,97385.22
2023-03-28T02:50:51.197Z,97389.28
2023-03-28T02:53:27.292Z,97384.81
2023-03-28T02:55:56.823Z,97398.88
2023-03-28T02:58:31.190Z,97397.75
2023-03-28T03:00:57.896Z,97395.91
2023-03-28T03:03:25.923Z,97405.69
2023-03-28T03:05:52.451Z,97401.38
2023-03-28T03:08:18.978Z,97404.59
2023-03-28T03:10:45.433Z,97409.41
2023-03-28T03:13:11.867Z,97408.47
2023-03-28T03:15:38.429Z,97405.81
2023-03-28T03:18:05.087Z,97411.53
2023-03-28T03:20:33.723Z,97412.59
2023-03-28T03:23:01.498Z,97410.00
2023-03-28T03:25:31.182Z,97411.41
2023-03-28T03:27:57.705Z,97408.91
2023-03-28T03:30:24.216Z,97407.28
2023-03-28T03:32:50.642Z,97407.88
2023-03-28T03:35:17.211Z,97404.91
2023-03-28T03:37:43.706Z,97418.28
2023-03-28T03:40:10.893Z,97413.94
2023-03-28T03:42:37.397Z,97425.88
2023-03-28T03:45:04.831Z,97426.91
2023-03-28T03:47:31.676Z,97427.25
2023-03-28T03:49:58.221Z,97423.47
2023-03-28T03:52:24.637Z,97425.41
2023-03-28T03:54:52.358Z,97430.34
2023-03-28T03:57:18.991Z,97418.13
2023-03-28T03:59:45.757Z,97429.97
2023-03-28T04:02:12.619Z,97427.66
2023-03-28T04:04:40.544Z,97433.56
2023-03-28T04:07:07.332Z,97435.06
2023-03-28T04:09:33.751Z,97428.19
2023-03-28T04:12:00.411Z,97427.84
2023-03-28T04:14:26.908Z,97419.53
2023-03-28T04:16:53.785Z,97435.25
2023-03-28T04:19:20.522Z,97428.50
2023-03-28T04:21:48.582Z,97427.72
2023-03-28T04:24:16.192Z,97420.81
2023-03-28T04:26:43.712Z,97429.69
2023-03-28T04:29:12.253Z,97435.16
2023-03-28T04:31:39.966Z,97441.25
2023-03-28T04:34:07.260Z,97429.31
2023-03-28T04:36:33.698Z,97433.78
2023-03-28T04:39:02.410Z,97440.13
2023-03-28T04:41:30.808Z,97437.16
2023-03-28T04:43:57.232Z,97440.56
2023-03-28T04:46:23.837Z,97446.47
2023-03-28T04:48:56.467Z,97444.66
2023-03-28T04:51:24.938Z,97459.78
2023-03-28T04:53:51.396Z,97453.78
2023-03-28T04:56:18.440Z,97449.44
2023-03-28T04:58:44.843Z,97462.00
2023-03-28T05:01:11.712Z,97459.78
2023-03-28T05:03:38.251Z,97467.00
2023-03-28T05:06:06.500Z,97465.91
2023-03-28T05:08:33.005Z,97476.69
2023-03-28T05:10:59.812Z,97474.25
2023-03-28T05:13:27.425Z,97472.63
2023-03-28T05:15:54.678Z,97474.75
2023-03-28T05:18:21.170Z,97475.13
2023-03-28T05:20:47.753Z,97485.16
2023-03-28T05:23:14.292Z,97478.97
2023-03-28T05:25:41.010Z,97482.31
2023-03-28T05:28:07.524Z,97487.50
2023-03-28T05:30:34.267Z,97486.53
2023-03-28T05:33:01.143Z,97488.72
2023-03-28T05:35:27.734Z,97485.97
2023-03-28T05:37:54.213Z,97491.16
2023-03-28T05:40:20.780Z,97494.13
2023-03-28T05:42:47.267Z,97484.88
2023-03-28T05:45:13.746Z,97493.56
2023-03-28T05:47:40.498Z,97493.13
2023-03-28T05:50:08.317Z,97492.34
2023-03-28T05:52:34.913Z,97488.00
2023-03-28T05:55:01.893Z,97497.53
2023-03-28T05:57:28.375Z,97488.41
2023-03-28T05:59:54.973Z,97491.44
2023-03-28T06:02:23.745Z,97499.75
2023-03-28T06:04:53.495Z,97499.94
2023-03-28T06:07:28.233Z,97510.38
2023-03-28T06:10:01.936Z,97516.28
2023-03-28T06:12:28.382Z,97514.34
2023-03-28T06:14:57.009Z,97531.34
2023-03-28T06:17:23.997Z,97530.47
2023-03-28T06:19:50.822Z,97537.88
2023-03-28T06:22:17.368Z,97527.13
2023-03-28T06:24:43.861Z,97537.31
2023-03-28T06:27:11.036Z,97539.66
2023-03-28T06:29:37.448Z,97541.34
2023-03-28T06:32:04.284Z,97536.88
2023-03-28T06:34:30.797Z,97543.09
2023-03-28T06:36:57.397Z,97548.84
2023-03-28T06:39:23.869Z,97550.19
2023-03-28T06:41:50.834Z,97550.94
2023-03-28T06:44:17.340Z,97552.38
2023-03-28T06:46:43.944Z,97549.19
2023-03-28T06:49:10.539Z,97561.03
2023-03-28T06:51:37.037Z,97559.19
2023-03-28T06:54:03.589Z,97565.97
2023-03-28T06:56:30.039Z,97568.97
2023-03-28T06:58:56.530Z,97560.00
2023-03-28T07:01:22.999Z,97573.13
2023-03-28T07:03:52.019Z,97575.41
2023-03-28T07:06:18.868Z,97583.53
2023-03-28T07:08:45.310Z,97576.78
2023-03-28T07:11:11.782Z,97583.09
2023-03-28T07:13:38.208Z,97570.59
2023-03-28T07:16:07.866Z,97575.81
2023-03-28T07:18:34.632Z,97583.50
2023-03-28T07:21:09.960Z,97580.81
2023-03-28T07:23:39.206Z,97591.00
2023-03-28T07:26:07.339Z,97588.28
2023-03-28T07:28:34.253Z,97592.75
2023-03-28T07:31:04.703Z,97605.19
2023-03-28T07:33:37.400Z,97607.38
2023-03-28T07:36:10.901Z,97603.00
2023-03-28T07:38:37.547Z,97607.94
2023-03-28T07:41:04.462Z,97606.28
2023-03-28T07:43:31.011Z,97614.91
2023-03-28T07:46:06.634Z,97622.22
2023-03-28T07:48:34.958Z,97617.97
2023-03-28T07:51:02.005Z,97624.81
2023-03-28T07:53:28.907Z,97623.13
2023-03-28T07:55:56.263Z,97620.53
2023-03-28T07:58:23.267Z,97629.03
2023-03-28T08:00:50.623Z,97631.44
2023-03-28T08:03:18.794Z,97629.44
2023-03-28T08:05:51.790Z,97630.38
2023-03-28T08:08:20.077Z,97631.22
2023-03-28T08:10:50.968Z,97631.72
2023-03-28T08:13:21.133Z,97623.00
2023-03-28T08:15:57.112Z,97626.13
2023-03-28T08:18:26.369Z,97629.03
2023-03-28T08:20:59.327Z,97628.75
2023-03-28T08:23:26.722Z,97615.34
2023-03-28T08:26:04.520Z,97628.16
2023-03-28T08:28:33.497Z,97627.44
2023-03-28T08:31:01.021Z,97621.25
2023-03-28T08:33:29.084Z,97636.03
2023-03-28T08:35:57.246Z,97618.34
2023-03-28T08:38:24.194Z,97627.41
2023-03-28T08:41:08.687Z,97632.53
2023-03-28T08:44:14.370Z,97629.16
2023-03-28T08:46:43.919Z,97638.91
2023-03-28T08:49:15.238Z,97633.72
2023-03-28T08:51:47.829Z,97629.00
2023-03-28T08:54:31.474Z,97626.78
2023-03-28T08:57:02.563Z,97624.06
2023-03-28T08:59:41.326Z,97634.22
2023-03-28T09:02:19.526Z,97633.19
2023-03-28T09:04:46.408Z,97626.22
2023-03-28T09:07:37.010Z,97631.56
2023-03-28T09:10:03.431Z,97631.59
2023-03-28T09:13:00.870Z,97633.13
2023-03-28T09:15:36.560Z,97633.97
2023-03-28T09:18:15.034Z,97631.78
2023-03-28T09:20:52.061Z,97633.53
2023-03-28T09:23:57.964Z,97633.53
2023-03-28T09:26:30.238Z,97639.34
2023-03-28T09:29:08.947Z,97641.38
2023-03-28T09:31:46.395Z,97652.69
2023-03-28T09:34:23.471Z,97660.88
2023-03-28T09:39:53.495Z,97645.38
2023-03-28T09:42:38.419Z,97641.59
2023-03-28T09:45:14.455Z,97643.09
2023-03-28T09:47:46.561Z,97646.63
2023-03-28T09:50:16.511Z,97653.97
2023-03-28T09:52:44.327Z,97648.41
2023-03-28T09:55:23.215Z,97649.88
2023-03-28T09:58:01.422Z,97655.94
2023-03-28T10:00:28.507Z,97659.16
2023-03-28T10:02:55.478Z,97662.00
2023-03-28T10:05:34.856Z,97663.03
2023-03-28T10:08:19.337Z,97666.69
2023-03-28T10:10:59.967Z,97664.59
2023-03-28T10:13:26.715Z,97663.34
2023-03-28T10:15:57.844Z,97664.69
2023-03-28T10:18:30.061Z,97667.94
2023-03-28T10:20:56.820Z,97674.78
2023-03-28T10:23:24.851Z,97668.63
2023-03-28T10:25:53.649Z,97681.88
2023-03-28T10:28:31.711Z,97672.44
2023-03-28T10:31:01.579Z,97681.22
2023-03-28T10:33:33.495Z,97694.50
2023-03-28T10:36:07.554Z,97690.28
2023-03-28T10:38:46.012Z,97696.25
2023-03-28T10:41:20.352Z,97697.34
2023-03-28T10:43:46.752Z,97698.38
2023-03-28T10:46:17.187Z,97712.22
2023-03-28T10:48:49.834Z,97705.94
2023-03-28T10:51:21.982Z,97708.19
2023-03-28T10:54:02.749Z,97707.59
2023-03-28T10:56:41.342Z,97713.84
2023-03-28T10:59:14.497Z,97705.00
2023-03-28T11:01:54.929Z,97715.84
2023-03-28T11:04:31.097Z,97714.84
2023-03-28T11:07:15.676Z,97714.22
2023-03-28T11:09:49.888Z,97703.34
2023-03-28T11:14:21.765Z,97715.03
2023-03-28T11:15:24.081Z,97703.41
2023-03-28T11:18:16.430Z,97719.22
2023-03-28T11:21:10.163Z,97710.00
2023-03-28T11:23:54.151Z,97719.53
2023-03-28T11:26:49.371Z,97712.91
2023-03-28T11:29:42.990Z,97717.72
2023-03-28T11:32:26.484Z,97711.59
2023-03-28T11:35:23.428Z,97708.75
2023-03-28T11:38:10.848Z,97696.63
2023-03-28T11:40:50.777Z,97701.59
2023-03-28T11:43:30.469Z,97700.44
2023-03-28T11:46:05.920Z,97715.88
2023-03-28T11:48:42.412Z,97718.91
2023-03-28T11:51:20.678Z,97710.16
2023-03-28T11:54:00.818Z,97707.28
2023-03-28T11:56:42.617Z,97690.16
2023-03-28T11:59:25.075Z,97688.25
2023-03-28T12:02:00.777Z,97692.78
2023-03-28T12:04:34.909Z,97689.06
2023-03-28T12:07:18.207Z,97682.91
2023-03-28T12:09:57.526Z,97698.84
2023-03-28T12:12:30.823Z,97698.97
2023-03-28T12:15:36.055Z,97702.00
2023-03-28T12:18:09.287Z,97694.41
2023-03-28T12:20:43.907Z,97700.09
2023-03-28T12:23:37.821Z,97693.53
2023-03-28T12:26:33.415Z,97690.78
2023-03-28T12:29:13.648Z,97668.00
2023-03-28T12:31:50.408Z,97681.50
2023-03-28T12:34:40.001Z,97678.00
2023-03-28T12:37:12.908Z,97677.88
2023-03-28T12:39:51.318Z,97676.03
2023-03-28T12:42:21.501Z,97675.81
2023-03-28T12:44:52.546Z,97659.03
2023-03-28T12:47:24.514Z,97658.34
2023-03-28T12:50:10.509Z,97660.69
2023-03-28T12:52:38.561Z,97659.56
2023-03-28T12:55:26.921Z,97656.84
2023-03-28T12:58:11.653Z,97659.88
2023-03-28T13:00:54.872Z,97663.84
2023-03-28T13:03:52.728Z,97669.34
2023-03-28T13:06:36.594Z,97674.41
2023-03-28T13:09:12.945Z,97676.47
2023-03-28T13:11:49.432Z,97678.97
2023-03-28T13:14:34.402Z,97676.13
2023-03-28T13:17:03.581Z,97671.66
2023-03-28T13:19:42.866Z,97665.59
2023-03-28T13:22:29.724Z,97673.47
2023-03-28T13:25:26.109Z,97677.69
2023-03-28T13:27:56.287Z,97662.38
2023-03-28T13:30:28.716Z,97669.16
2023-03-28T13:33:07.858Z,97668.25
2023-03-28T13:35:43.970Z,97671.16
2023-03-28T13:38:29.539Z,97674.44
2023-03-28T13:41:06.693Z,97667.28
2023-03-28T13:43:43.613Z,97661.81
2023-03-28T13:46:25.477Z,97668.69
2023-03-28T13:49:06.018Z,97661.94
2023-03-28T13:51:58.602Z,97664.94
2023-03-28T13:54:28.247Z,97672.25
2023-03-28T13:57:05.171Z,97658.09
2023-03-28T13:59:44.064Z,97666.31
2023-03-28T14:02:31.709Z,97656.81
2023-03-28T14:05:12.340Z,97655.25
2023-03-28T14:07:39.597Z,97664.66
2023-03-28T14:10:28.716Z,97667.25
2023-03-28T14:12:58.513Z,97662.84
2023-03-28T14:15:29.717Z,97658.72
2023-03-28T14:17:57.878Z,97650.53
2023-03-28T14:20:25.024Z,97653.84
2023-03-28T14:22:59.866Z,97653.34
2023-03-28T14:25:27.530Z,97646.94
2023-03-28T14:27:56.730Z,97643.47
2023-03-28T14:30:29.765Z,97639.34
2023-03-28T14:33:10.841Z,97642.25
2023-03-28T14:35:42.269Z,97623.66
2023-03-28T14:38:14.309Z,97622.81
2023-03-28T14:40:42.572Z,97630.09
2023-03-28T14:43:13.197Z,97633.16
2023-03-28T14:45:43.600Z,97628.38
2023-03-28T14:48:17.534Z,97628.75
2023-03-28T14:50:45.893Z,97628.31
2023-03-28T14:53:24.484Z,97624.63
2023-03-28T14:55:54.466Z,97622.41
2023-03-28T14:58:22.700Z,97620.63
2023-03-28T15:00:53.048Z,97623.78
2023-03-28T15:03:24.284Z,97624.84
2023-03-28T15:05:52.586Z,97625.81
2023-03-28T15:08:38.342Z,97625.72
2023-03-28T15:11:15.471Z,97610.28
2023-03-28T15:13:45.783Z,97611.50
2023-03-28T15:16:19.404Z,97616.88
2023-03-28T15:18:51.752Z,97611.34
2023-03-28T15:21:18.541Z,97607.81
2023-03-28T15:23:57.181Z,97599.41
2023-03-28T15:26:30.487Z,97603.88
2023-03-28T15:28:58.041Z,97600.66
2023-03-28T15:31:26.836Z,97603.41
2023-03-28T15:33:54.162Z,97602.72
2023-03-28T15:36:28.701Z,97597.88
2023-03-28T15:39:17.149Z,97595.97
2023-03-28T15:41:47.930Z,97599.38
2023-03-28T15:44:46.228Z,97598.81
2023-03-28T15:47:22.701Z,97601.53
2023-03-28T15:49:50.674Z,97596.13
2023-03-28T15:52:20.704Z,97597.84
2023-03-28T15:54:52.572Z,97593.84
2023-03-28T15:57:21.027Z,97592.34
2023-03-28T15:59:51.308Z,97578.34
2023-03-28T16:02:23.942Z,97583.13
2023-03-28T16:05:03.592Z,97577.78
2023-03-28T16:07:35.877Z,97580.94
2023-03-28T16:10:03.594Z,97576.91
2023-03-28T16:12:30.130Z,97578.56
2023-03-28T16:14:56.556Z,97578.81
2023-03-28T16:17:24.894Z,97573.72
2023-03-28T16:19:51.415Z,97566.38
2023-03-28T16:22:18.012Z,97570.53
2023-03-28T16:24:44.407Z,97573.03
2023-03-28T16:27:10.968Z,97570.53
2023-03-28T16:29:37.764Z,97571.34
2023-03-28T16:32:04.398Z,97573.69
2023-03-28T16:34:31.082Z,97581.78
2023-03-28T16:36:58.046Z,97573.97
2023-03-28T16:39:24.794Z,97572.81
2023-03-28T16:41:51.252Z,97578.06
2023-03-28T16:44:17.726Z,97572.69
2023-03-28T16:46:44.390Z,97578.59
2023-03-28T16:49:11.000Z,97571.84
2023-03-28T16:51:37.505Z,97577.56
2023-03-28T16:54:04.249Z,97571.22
2023-03-28T16:56:30.740Z,97573.38
2023-03-28T16:58:57.244Z,97575.28
2023-03-28T17:01:23.702Z,97569.50
2023-03-28T17:03:52.700Z,97572.31
2023-03-28T17:06:19.555Z,97562.94
2023-03-28T17:08:46.373Z,97559.78
2023-03-28T17:11:13.777Z,97558.91
2023-03-28T17:13:42.754Z,97551.88
2023-03-28T17:16:10.736Z,97551.41
2023-03-28T17:18:37.262Z,97553.13
2023-03-28T17:21:06.448Z,97551.94
2023-03-28T17:23:34.181Z,97549.59
2023-03-28T17:26:01.237Z,97553.06
2023-03-28T17:28:29.126Z,97553.31
2023-03-28T17:30:56.167Z,97550.13
2023-03-28T17:33:23.356Z,97544.47
2023-03-28T17:35:49.940Z,97550.41
2023-03-28T17:38:16.477Z,97544.63
2023-03-28T17:40:49.522Z,97558.38
2023-03-28T17:43:16.156Z,97555.66
2023-03-28T17:45:43.584Z,97559.78
2023-03-28T17:48:12.381Z,97559.69
2023-03-28T17:50:39.250Z,97558.53
2023-03-28T17:53:06.875Z,97552.47
2023-03-28T17:55:33.911Z,97561.94
2023-03-28T17:58:00.299Z,97555.44
2023-03-28T18:00:28.039Z,97556.50
2023-03-28T18:02:55.890Z,97548.22
2023-03-28T18:05:22.655Z,97553.31
2023-03-28T18:07:49.212Z,97546.78
2023-03-28T18:10:15.886Z,97538.97
2023-03-28T18:12:42.425Z,97539.34
2023-03-28T18:15:09.232Z,97545.47
2023-03-28T18:17:35.690Z,97539.91
2023-03-28T18:20:02.692Z,97540.00
2023-03-28T18:22:30.256Z,97543.44
2023-03-28T18:24:56.895Z,97542.22
2023-03-28T18:27:23.437Z,97532.53
2023-03-28T18:29:49.897Z,97531.81
2023-03-28T18:32:16.634Z,97540.03
2023-03-28T18:34:43.633Z,97534.44
2023-03-28T18:37:11.178Z,97525.97
2023-03-28T18:39:38.090Z,97537.16
2023-03-28T18:42:06.311Z,97527.22
2023-03-28T18:44:35.651Z,97531.00
2023-03-28T18:47:02.632Z,97527.69
2023-03-28T18:49:30.891Z,97527.22
2023-03-28T18:52:04.505Z,97531.50
2023-03-28T18:54:32.958Z,97535.69
2023-03-28T18:57:00.369Z,97527.56
2023-03-28T18:59:27.995Z,97526.25
2023-03-28T19:01:54.870Z,97510.78
2023-03-28T19:04:26.533Z,97517.25
2023-03-28T19:06:53.200Z,97524.38
2023-03-28T19:09:20.629Z,97518.88
2023-03-28T19:11:50.241Z,97525.00
2023-03-28T19:14:16.777Z,97511.09
2023-03-28T19:16:43.321Z,97516.44
2023-03-28T19:19:10.198Z,97524.63
2023-03-28T19:21:36.973Z,97520.00
2023-03-28T19:24:03.803Z,97516.38
2023-03-28T19:26:30.465Z,97530.09
2023-03-28T19:28:57.710Z,97526.53
2023-03-28T19:31:25.482Z,97519.69
2023-03-28T19:33:52.835Z,97516.25
2023-03-28T19:36:19.407Z,97505.59
2023-03-28T19:38:46.062Z,97507.66
2023-03-28T19:41:22.071Z,97514.94
2023-03-28T19:43:49.426Z,97508.72
2023-03-28T19:46:19.921Z,97513.28
2023-03-28T19:48:46.771Z,97511.72
2023-03-28T19:51:23.708Z,97510.47
2023-03-28T19:53:50.169Z,97508.50
2023-03-28T19:56:18.880Z,97500.81
2023-03-28T19:58:48.377Z,97496.34
2023-03-28T20:01:14.844Z,97493.34
2023-03-28T20:03:41.346Z,97489.19
2023-03-28T20:06:11.485Z,97485.19
2023-03-28T20:08:37.983Z,97488.16
2023-03-28T20:11:08.239Z,97488.72
2023-03-28T20:13:35.057Z,97486.09
2023-03-28T20:16:03.462Z,97482.38
2023-03-28T20:18:30.620Z,97473.78
2023-03-28T20:20:58.970Z,97468.88
2023-03-28T20:23:27.020Z,97466.72
2023-03-28T20:25:54.356Z,97463.53
2023-03-28T20:28:24.442Z,97465.03
2023-03-28T20:30:52.717Z,97460.59
2023-03-28T20:33:21.059Z,97454.28
2023-03-28T20:35:56.326Z,97452.06
2023-03-28T20:38:23.660Z,97461.66
2023-03-28T20:40:50.618Z,97456.03
2023-03-28T20:43:20.703Z,97452.84
2023-03-28T20:45:53.810Z,97451.28
2023-03-28T20:48:26.181Z,97455.66
2023-03-28T20:50:55.274Z,97455.66
2023-03-28T20:53:22.458Z,97455.41
2023-03-28T20:55:50.177Z,97447.13
2023-03-28T20:58:17.009Z,97460.31
2023-03-28T21:00:43.669Z,97457.06
2023-03-28T21:03:11.299Z,97453.78
2023-03-28T21:05:42.016Z,97446.91
2023-03-28T21:08:08.557Z,97445.69
2023-03-28T21:10:36.396Z,97435.03
2023-03-28T21:13:02.819Z,97436.88
2023-03-28T21:15:30.535Z,97427.72
2023-03-28T21:17:57.674Z,97424.00
2023-03-28T21:20:24.261Z,97423.50
2023-03-28T21:22:51.009Z,97419.84
2023-03-28T21:25:17.614Z,97421.00
2023-03-28T21:27:44.186Z,97421.00
2023-03-28T21:30:11.706Z,97412.94
2023-03-28T21:32:38.232Z,97408.16
2023-03-28T21:35:05.426Z,97399.88
2023-03-28T21:37:31.922Z,97400.69
2023-03-28T21:39:58.435Z,97405.16
2023-03-28T21:42:25.247Z,97398.72
2023-03-28T21:44:52.000Z,97389.63
2023-03-28T21:47:18.454Z,97388.16
2023-03-28T21:49:46.246Z,97390.66
2023-03-28T21:52:13.099Z,97380.06
2023-03-28T21:54:40.394Z,97380.81
2023-03-28T21:57:06.960Z,97377.06
2023-03-28T21:59:33.449Z,97384.09
2023-03-28T22:02:00.125Z,97371.25
2023-03-28T22:04:28.408Z,97378.63
2023-03-28T22:06:55.735Z,97385.78
2023-03-28T22:09:22.218Z,97377.38
2023-03-28T22:11:48.922Z,97369.81
2023-03-28T22:14:15.516Z,97364.34
2023-03-28T22:16:42.595Z,97366.72
2023-03-28T22:19:09.780Z,97358.22
2023-03-28T22:21:37.144Z,97356.75
2023-03-28T22:24:06.556Z,97361.13
2023-03-28T22:26:33.064Z,97356.75
2023-03-28T22:28:59.773Z,97352.59
2023-03-28T22:31:27.470Z,97356.13
2023-03-28T22:33:54.735Z,97342.88
2023-03-28T22:36:22.040Z,97347.03
2023-03-28T22:38:48.880Z,97351.47
2023-03-28T22:41:15.751Z,97346.50
2023-03-28T22:43:42.712Z,97348.47
2023-03-28T22:46:12.598Z,97355.31
2023-03-28T22:48:39.363Z,97350.53
2023-03-28T22:51:11.727Z,97358.19
2023-03-28T22:53:39.805Z,97364.53
2023-03-28T22:56:07.188Z,97356.97
2023-03-28T22:58:34.789Z,97353.25
2023-03-28T23:01:01.757Z,97356.44
2023-03-28T23:03:28.261Z,97353.44
2023-03-28T23:05:55.131Z,97347.41
2023-03-28T23:08:22.244Z,97343.09
2023-03-28T23:10:48.859Z,97350.66
2023-03-28T23:13:16.523Z,97349.91
2023-03-28T23:15:43.753Z,97350.41
2023-03-28T23:18:11.214Z,97336.03
2023-03-28T23:20:38.252Z,97341.19
2023-03-28T23:23:04.801Z,97334.38
2023-03-28T23:25:31.786Z,97333.75
2023-03-28T23:27:58.284Z,97330.03
2023-03-28T23:30:24.689Z,97339.56
2023-03-28T23:32:51.217Z,97336.88
2023-03-28T23:35:18.089Z,97341.44
2023-03-28T23:37:44.804Z,97341.03
2023-03-28T23:40:14.791Z,97343.63
2023-03-28T23:42:46.379Z,97335.38
2023-03-28T23:45:15.573Z,97335.63
2023-03-28T23:47:43.743Z,97339.84
2023-03-28T23:50:11.171Z,97337.34
2023-03-28T23:52:37.702Z,97332.53
2023-03-28T23:55:04.454Z,97331.66
2023-03-28T23:57:30.931Z,97341.00
2023-03-28T23:59:57.644Z,97332.91
